Terminal Aerodrome Forecast
Issued by NWS

Home | Current Version | Previous Version | Text Only | Print | Product List | Glossary On
Versions: 1 2 3 4 5 6 7 8 9 10 11 12 13
000
FTUS43 KLSX 220500
TAFSUS
TAF
KSUS 220520Z 2206/2306 31007KT P6SM BKN100
     FM221000 30007KT P6SM SCT120
     FM221400 31013G19KT P6SM FEW070
     FM230100 VRB03KT P6SM SCT250=

USA.gov is the U.S. government's official web portal to all federal, state and local government web resources and services.